createdAt,value
2022-10-28T00:02:44.595Z,14.30
2022-10-28T00:05:49.411Z,14.34
2022-10-28T00:08:52.556Z,14.41
2022-10-28T00:11:55.426Z,14.29
2022-10-28T00:14:58.310Z,14.23
2022-10-28T00:18:01.594Z,14.17
2022-10-28T00:21:08.143Z,14.25
2022-10-28T00:24:12.410Z,14.15
2022-10-28T00:27:15.298Z,14.19
2022-10-28T00:30:18.407Z,14.27
2022-10-28T00:33:21.272Z,14.24
2022-10-28T00:36:27.022Z,14.30
2022-10-28T00:39:30.159Z,14.33
2022-10-28T00:42:33.076Z,14.39
2022-10-28T00:45:36.130Z,14.43
2022-10-28T00:48:41.405Z,14.50
2022-10-28T00:51:48.906Z,14.58
2022-10-28T00:54:53.891Z,14.60
2022-10-28T00:58:00.323Z,14.62
2022-10-28T01:01:03.272Z,14.63
2022-10-28T01:04:06.464Z,14.72
2022-10-28T01:07:11.805Z,14.79
2022-10-28T01:10:15.944Z,14.84
2022-10-28T01:13:26.714Z,14.88
2022-10-28T01:16:36.893Z,14.94
2022-10-28T01:20:07.923Z,14.94
2022-10-28T01:23:19.470Z,14.92
2022-10-28T01:26:38.791Z,15.00
2022-10-28T01:29:56.450Z,14.99
2022-10-28T01:33:07.546Z,14.98
2022-10-28T01:36:15.471Z,14.95
2022-10-28T01:39:29.609Z,15.02
2022-10-28T01:42:39.928Z,14.99
2022-10-28T01:45:51.486Z,14.94
2022-10-28T01:49:00.070Z,14.89
2022-10-28T01:52:06.281Z,14.90
2022-10-28T01:55:15.359Z,14.87
2022-10-28T01:58:22.505Z,14.84
2022-10-28T02:01:27.245Z,14.81
2022-10-28T02:04:31.741Z,14.75
2022-10-28T02:07:34.730Z,14.70
2022-10-28T02:10:43.745Z,14.60
2022-10-28T02:13:59.341Z,14.58
2022-10-28T02:17:11.504Z,14.58
2022-10-28T02:20:25.326Z,14.53
2022-10-28T02:23:40.689Z,14.52
2022-10-28T02:26:48.521Z,14.50
2022-10-28T02:29:56.236Z,14.52
2022-10-28T02:33:01.593Z,14.53
2022-10-28T02:36:10.052Z,14.55
2022-10-28T02:39:13.300Z,14.59
2022-10-28T02:42:22.185Z,14.59
2022-10-28T02:45:29.382Z,14.64
2022-10-28T02:48:37.874Z,14.57
2022-10-28T02:51:46.022Z,14.57
2022-10-28T02:54:54.187Z,14.48
2022-10-28T02:57:58.287Z,14.43
2022-10-28T03:01:01.214Z,14.35
2022-10-28T03:04:05.099Z,14.36
2022-10-28T03:07:09.318Z,14.36
2022-10-28T03:10:12.215Z,14.35
2022-10-28T03:13:15.077Z,14.35
2022-10-28T03:16:17.910Z,14.35
2022-10-28T03:19:20.740Z,14.18
2022-10-28T03:22:24.958Z,14.17
2022-10-28T03:25:27.811Z,14.26
2022-10-28T03:28:30.681Z,14.29
2022-10-28T03:31:33.543Z,14.34
2022-10-28T03:34:36.419Z,14.29
2022-10-28T03:37:42.369Z,14.26
2022-10-28T03:40:45.256Z,14.32
2022-10-28T03:43:48.088Z,14.25
2022-10-28T03:46:50.919Z,14.27
2022-10-28T03:49:53.744Z,14.24
2022-10-28T03:52:57.980Z,14.35
2022-10-28T03:56:02.474Z,14.31
2022-10-28T03:59:05.355Z,14.38
2022-10-28T04:02:08.428Z,14.44
2022-10-28T04:05:11.421Z,14.46
2022-10-28T04:08:15.909Z,14.51
2022-10-28T04:11:18.799Z,14.54
2022-10-28T04:14:21.643Z,14.61
2022-10-28T04:17:24.576Z,14.61
2022-10-28T04:20:28.344Z,14.67
2022-10-28T04:23:32.595Z,14.68
2022-10-28T04:26:35.480Z,14.72
2022-10-28T04:29:38.374Z,14.77
2022-10-28T04:32:41.761Z,14.75
2022-10-28T04:35:44.645Z,14.76
2022-10-28T04:38:50.145Z,14.79
2022-10-28T04:41:53.028Z,14.77
2022-10-28T04:44:55.921Z,14.80
2022-10-28T04:47:59.096Z,14.81
2022-10-28T04:51:02.190Z,14.82
2022-10-28T04:54:06.749Z,14.85
2022-10-28T04:57:09.881Z,14.83
2022-10-28T05:00:13.933Z,14.78
2022-10-28T05:03:16.909Z,14.75
2022-10-28T05:06:19.888Z,14.65
2022-10-28T05:09:24.110Z,14.64
2022-10-28T05:12:26.946Z,14.62
2022-10-28T05:15:31.373Z,14.63
2022-10-28T05:18:34.322Z,14.58
2022-10-28T05:21:37.228Z,14.60
2022-10-28T05:24:41.490Z,14.44
2022-10-28T05:27:44.458Z,14.40
2022-10-28T05:30:47.335Z,14.41
2022-10-28T05:33:50.186Z,14.40
2022-10-28T05:36:53.022Z,14.38
2022-10-28T05:39:57.278Z,14.38
2022-10-28T05:43:00.164Z,14.37
2022-10-28T05:46:03.899Z,14.28
2022-10-28T05:49:07.021Z,14.24
2022-10-28T05:52:10.087Z,14.18
2022-10-28T05:55:14.668Z,14.19
2022-10-28T05:58:17.591Z,14.17
2022-10-28T06:01:20.617Z,14.19
2022-10-28T06:04:23.707Z,14.18
2022-10-28T06:07:26.655Z,14.19
2022-10-28T06:10:30.901Z,14.10
2022-10-28T06:13:32.224Z,14.14
2022-10-28T06:16:35.095Z,14.13
2022-10-28T06:19:38.089Z,14.14
2022-10-28T06:22:47.742Z,14.16
2022-10-28T06:29:00.617Z,14.25
2022-10-28T06:32:03.892Z,14.28
2022-10-28T06:35:07.186Z,14.33
2022-10-28T06:38:10.090Z,14.37
2022-10-28T06:41:14.345Z,14.42
2022-10-28T06:44:17.212Z,14.43
2022-10-28T06:47:21.620Z,14.45
2022-10-28T06:50:24.941Z,14.51
2022-10-28T06:53:27.824Z,14.58
2022-10-28T06:56:32.033Z,14.66
2022-10-28T06:59:34.889Z,14.80
2022-10-28T07:02:41.377Z,14.85
2022-10-28T07:05:47.865Z,14.96
2022-10-28T07:08:50.770Z,15.01
2022-10-28T07:11:55.415Z,15.10
2022-10-28T07:14:58.625Z,15.11
2022-10-28T07:18:02.629Z,15.17
2022-10-28T07:21:05.758Z,15.21
2022-10-28T07:24:09.116Z,15.30
2022-10-28T07:27:13.893Z,15.38
2022-10-28T07:30:16.851Z,15.44
2022-10-28T07:33:19.713Z,15.54
2022-10-28T07:36:22.800Z,15.57
2022-10-28T07:39:25.785Z,15.62
2022-10-28T07:42:30.067Z,15.68
2022-10-28T07:45:32.910Z,15.68
2022-10-28T07:48:37.704Z,15.77
2022-10-28T07:51:40.925Z,15.81
2022-10-28T07:54:43.804Z,15.84
2022-10-28T07:57:48.015Z,15.85
2022-10-28T08:00:51.077Z,15.86
2022-10-28T08:03:54.019Z,15.88
2022-10-28T08:06:56.927Z,15.93
2022-10-28T08:09:59.812Z,15.93
2022-10-28T08:13:04.463Z,15.97
2022-10-28T08:16:08.052Z,15.97
2022-10-28T08:19:11.975Z,16.08
2022-10-28T08:22:14.855Z,16.06
2022-10-28T08:25:17.752Z,16.02
2022-10-28T08:28:22.059Z,16.05
2022-10-28T08:31:24.912Z,16.11
2022-10-28T08:34:29.956Z,16.19
2022-10-28T08:37:33.145Z,16.28
2022-10-28T08:40:43.368Z,16.51
2022-10-28T08:44:26.058Z,16.66
2022-10-28T08:47:42.683Z,16.85
2022-10-28T08:50:50.316Z,17.18
2022-10-28T08:53:56.437Z,17.54
2022-10-28T08:57:02.406Z,17.96
2022-10-28T09:00:09.580Z,17.95
2022-10-28T09:03:20.552Z,18.05
2022-10-28T09:06:23.454Z,18.09
2022-10-28T09:09:26.379Z,18.34
2022-10-28T09:12:42.859Z,18.66
2022-10-28T09:15:56.219Z,19.18
2022-10-28T09:19:02.866Z,19.11
2022-10-28T09:22:21.970Z,19.20
2022-10-28T09:25:32.746Z,19.22
2022-10-28T09:28:50.778Z,19.49
2022-10-28T09:32:00.011Z,19.55
2022-10-28T09:35:07.365Z,19.76
2022-10-28T09:38:21.696Z,19.93
2022-10-28T09:41:28.308Z,19.99
2022-10-28T09:44:40.961Z,20.22
2022-10-28T09:47:51.395Z,20.63
2022-10-28T09:50:56.880Z,20.71
2022-10-28T09:54:12.679Z,21.11
2022-10-28T09:57:20.352Z,21.48
2022-10-28T10:00:29.221Z,21.65
2022-10-28T10:03:33.970Z,21.67
2022-10-28T10:06:40.165Z,21.82
2022-10-28T10:09:45.429Z,21.75
2022-10-28T10:12:52.406Z,21.68
2022-10-28T10:15:58.153Z,21.55
2022-10-28T10:19:04.344Z,21.35
2022-10-28T10:22:07.243Z,21.24
2022-10-28T10:25:29.831Z,21.14
2022-10-28T10:28:36.611Z,21.05
2022-10-28T10:31:40.397Z,21.13
2022-10-28T10:34:57.398Z,21.14
2022-10-28T10:38:02.566Z,21.16
2022-10-28T10:41:05.740Z,21.24
2022-10-28T10:44:32.706Z,21.22
2022-10-28T10:47:35.844Z,21.20
2022-10-28T10:50:40.784Z,21.18
2022-10-28T10:53:50.277Z,21.20
2022-10-28T10:56:53.482Z,21.16
2022-10-28T10:59:58.383Z,21.34
2022-10-28T11:03:02.570Z,21.21
2022-10-28T11:06:23.552Z,21.27
2022-10-28T11:09:32.626Z,21.24
2022-10-28T11:12:37.539Z,21.33
2022-10-28T11:15:40.491Z,21.35
2022-10-28T11:18:45.788Z,21.31
2022-10-28T11:22:20.382Z,21.32
2022-10-28T11:25:37.994Z,21.46
2022-10-28T11:28:57.575Z,21.61
2022-10-28T11:32:31.990Z,21.92
2022-10-28T11:35:44.945Z,22.21
2022-10-28T11:39:07.578Z,22.04
2022-10-28T11:42:25.404Z,22.09
2022-10-28T11:45:36.545Z,22.25
2022-10-28T11:48:47.726Z,22.16
2022-10-28T11:51:58.430Z,22.14
2022-10-28T11:55:19.190Z,22.14
2022-10-28T11:58:32.603Z,22.10
2022-10-28T12:01:45.865Z,22.28
2022-10-28T12:05:01.389Z,22.40
2022-10-28T12:08:31.434Z,22.51
2022-10-28T12:11:47.698Z,22.36
2022-10-28T12:15:02.297Z,22.24
2022-10-28T12:18:12.419Z,22.05
2022-10-28T12:21:23.625Z,21.95
2022-10-28T12:24:28.069Z,21.91
2022-10-28T12:27:36.378Z,21.77
2022-10-28T12:30:42.950Z,21.71
2022-10-28T12:33:48.897Z,21.69
2022-10-28T12:36:57.603Z,21.60
2022-10-28T12:40:07.299Z,21.57
2022-10-28T12:43:15.482Z,21.54
2022-10-28T12:46:27.171Z,21.58
2022-10-28T12:49:40.866Z,21.60
2022-10-28T12:52:52.232Z,21.56
2022-10-28T12:55:59.314Z,21.51
2022-10-28T12:59:08.964Z,21.46
2022-10-28T13:02:18.624Z,21.61
2022-10-28T13:05:27.420Z,21.63
2022-10-28T13:09:06.786Z,21.73
2022-10-28T13:12:38.368Z,21.65
2022-10-28T13:16:05.783Z,21.57
2022-10-28T13:19:26.132Z,21.62
2022-10-28T13:22:48.972Z,21.79
2022-10-28T13:26:00.580Z,21.94
2022-10-28T13:29:07.282Z,21.81
2022-10-28T13:32:34.080Z,21.91
2022-10-28T13:35:40.567Z,21.84
2022-10-28T13:38:44.346Z,21.98
2022-10-28T13:41:48.865Z,21.95
2022-10-28T13:44:53.483Z,22.11
2022-10-28T13:48:47.996Z,21.97
2022-10-28T13:51:52.175Z,21.82
2022-10-28T13:54:58.858Z,21.76
2022-10-28T13:58:05.334Z,21.70
2022-10-28T14:02:01.924Z,21.55
2022-10-28T14:05:15.235Z,21.46
2022-10-28T14:08:23.076Z,21.45
2022-10-28T14:11:28.612Z,21.44
2022-10-28T14:14:32.399Z,21.40
2022-10-28T14:17:39.002Z,21.24
2022-10-28T14:20:54.939Z,21.37
2022-10-28T14:24:13.254Z,21.36
2022-10-28T14:27:29.047Z,21.30
2022-10-28T14:30:32.000Z,21.23
2022-10-28T14:33:35.724Z,21.25
2022-10-28T14:36:49.270Z,21.12
2022-10-28T14:40:12.910Z,21.05
2022-10-28T14:43:42.935Z,21.05
2022-10-28T14:46:58.538Z,20.85
2022-10-28T14:50:05.032Z,20.83
2022-10-28T14:53:15.127Z,20.87
2022-10-28T14:59:34.395Z,20.83
2022-10-28T15:02:38.924Z,20.78
2022-10-28T15:05:41.940Z,20.65
2022-10-28T15:08:46.646Z,20.70
2022-10-28T15:11:53.394Z,20.69
2022-10-28T15:14:58.101Z,20.65
2022-10-28T15:18:01.362Z,20.84
2022-10-28T15:21:12.897Z,20.63
2022-10-28T15:24:17.417Z,20.61
2022-10-28T15:27:21.278Z,20.47
2022-10-28T15:30:25.508Z,20.45
2022-10-28T15:33:31.067Z,20.41
2022-10-28T15:36:34.120Z,20.34
2022-10-28T15:39:40.027Z,20.27
2022-10-28T15:42:45.757Z,20.26
2022-10-28T15:45:48.797Z,20.22
2022-10-28T15:48:53.051Z,20.15
2022-10-28T15:52:31.651Z,20.07
2022-10-28T15:56:02.273Z,20.18
2022-10-28T15:59:09.533Z,19.97
2022-10-28T16:02:40.567Z,19.80
2022-10-28T16:05:49.646Z,19.79
2022-10-28T16:09:01.719Z,19.57
2022-10-28T16:12:15.503Z,19.56
2022-10-28T16:15:18.749Z,19.50
2022-10-28T16:18:22.187Z,19.44
2022-10-28T16:21:27.498Z,19.50
2022-10-28T16:24:30.522Z,19.54
2022-10-28T16:27:34.805Z,19.37
2022-10-28T16:30:37.664Z,19.30
2022-10-28T16:33:40.606Z,19.16
2022-10-28T16:36:43.529Z,19.10
2022-10-28T16:39:46.399Z,18.97
2022-10-28T16:42:51.141Z,18.81
2022-10-28T16:45:55.644Z,18.78
2022-10-28T16:48:58.554Z,18.77
2022-10-28T16:52:03.025Z,18.45
2022-10-28T16:55:14.601Z,18.41
2022-10-28T16:58:21.940Z,18.22
2022-10-28T17:01:27.651Z,18.25
2022-10-28T17:04:31.093Z,18.11
2022-10-28T17:07:34.315Z,18.13
2022-10-28T17:10:37.440Z,18.32
2022-10-28T17:13:41.943Z,18.21
2022-10-28T17:16:44.991Z,18.27
2022-10-28T17:19:48.021Z,18.20
2022-10-28T17:22:50.988Z,18.22
2022-10-28T17:25:57.297Z,18.01
2022-10-28T17:29:01.635Z,18.07
2022-10-28T17:32:04.920Z,18.10
2022-10-28T17:35:08.315Z,18.07
2022-10-28T17:38:11.391Z,18.07
2022-10-28T17:41:14.358Z,18.08
2022-10-28T17:44:18.657Z,18.04
2022-10-28T17:47:21.614Z,18.04
2022-10-28T17:50:24.495Z,18.02
2022-10-28T17:53:27.423Z,17.96
2022-10-28T17:56:30.318Z,17.92
2022-10-28T17:59:34.700Z,17.85
2022-10-28T18:02:39.621Z,17.81
2022-10-28T18:05:42.685Z,17.77
2022-10-28T18:08:45.780Z,17.65
2022-10-28T18:11:49.156Z,17.30
2022-10-28T18:14:53.533Z,17.37
2022-10-28T18:17:56.695Z,17.33
2022-10-28T18:21:00.325Z,17.29
2022-10-28T18:24:08.438Z,17.21
2022-10-28T18:27:22.182Z,17.15
2022-10-28T18:30:42.632Z,17.15
2022-10-28T18:33:55.679Z,17.13
2022-10-28T18:37:00.701Z,17.04
2022-10-28T18:40:03.614Z,17.12
2022-10-28T18:43:06.432Z,16.96
2022-10-28T18:46:11.351Z,17.02
2022-10-28T18:49:14.414Z,17.03
2022-10-28T18:52:17.479Z,17.00
2022-10-28T18:55:20.424Z,17.08
2022-10-28T18:58:26.847Z,17.07
2022-10-28T19:01:32.160Z,17.02
2022-10-28T19:04:35.297Z,17.05
2022-10-28T19:07:38.372Z,17.12
2022-10-28T19:10:41.684Z,16.96
2022-10-28T19:13:44.879Z,16.94
2022-10-28T19:16:49.090Z,16.95
2022-10-28T19:19:52.161Z,16.93
2022-10-28T19:22:55.473Z,16.82
2022-10-28T19:25:59.174Z,16.76
2022-10-28T19:29:02.284Z,16.83
2022-10-28T19:32:06.643Z,16.74
2022-10-28T19:35:10.440Z,16.78
2022-10-28T19:38:13.256Z,16.77
2022-10-28T19:41:18.576Z,16.87
2022-10-28T19:44:21.546Z,16.85
2022-10-28T19:47:25.990Z,16.87
2022-10-28T19:50:29.070Z,17.21
2022-10-28T19:53:32.173Z,17.15
2022-10-28T19:56:36.186Z,16.97
2022-10-28T19:59:39.158Z,16.78
2022-10-28T20:02:43.802Z,16.82
2022-10-28T20:05:46.717Z,16.96
2022-10-28T20:08:51.206Z,16.90
2022-10-28T20:11:54.197Z,16.83
2022-10-28T20:14:57.281Z,16.83
2022-10-28T20:18:01.777Z,16.88
2022-10-28T20:21:06.510Z,17.04
2022-10-28T20:24:09.797Z,17.03
2022-10-28T20:27:12.737Z,16.99
2022-10-28T20:30:15.922Z,16.92
2022-10-28T20:33:20.248Z,16.72
2022-10-28T20:36:25.336Z,16.88
2022-10-28T20:39:28.249Z,16.86
2022-10-28T20:42:31.687Z,16.94
2022-10-28T20:45:34.508Z,16.95
2022-10-28T20:48:38.863Z,16.93
2022-10-28T20:51:42.433Z,16.76
2022-10-28T20:54:47.742Z,16.72
2022-10-28T20:57:50.612Z,16.67
2022-10-28T21:00:56.437Z,16.65
2022-10-28T21:04:02.677Z,16.85
2022-10-28T21:07:05.651Z,16.78
2022-10-28T21:10:09.881Z,16.94
2022-10-28T21:13:12.840Z,16.95
2022-10-28T21:16:15.770Z,17.09
2022-10-28T21:19:20.038Z,17.04
2022-10-28T21:22:22.939Z,16.99
2022-10-28T21:25:25.849Z,17.08
2022-10-28T21:28:30.174Z,17.38
2022-10-28T21:31:33.120Z,17.17
2022-10-28T21:34:37.317Z,16.93
2022-10-28T21:37:40.212Z,16.90
2022-10-28T21:40:43.175Z,16.86
2022-10-28T21:43:48.236Z,16.77
2022-10-28T21:46:51.224Z,16.82
2022-10-28T21:49:55.506Z,16.80
2022-10-28T21:52:58.374Z,16.99
2022-10-28T21:56:04.453Z,16.95
2022-10-28T21:59:07.335Z,16.89
2022-10-28T22:02:10.379Z,16.93
2022-10-28T22:05:14.712Z,16.94
2022-10-28T22:08:17.787Z,16.94
2022-10-28T22:11:22.754Z,16.83
2022-10-28T22:14:25.579Z,16.65
2022-10-28T22:17:29.508Z,16.47
2022-10-28T22:20:34.777Z,16.51
2022-10-28T22:23:37.696Z,16.46
2022-10-28T22:26:40.640Z,16.45
2022-10-28T22:29:43.516Z,16.61
2022-10-28T22:32:46.455Z,16.58
2022-10-28T22:35:58.449Z,16.50
2022-10-28T22:39:01.362Z,16.58
2022-10-28T22:42:04.258Z,16.60
2022-10-28T22:45:08.325Z,16.54
2022-10-28T22:48:11.170Z,16.64
2022-10-28T22:51:15.957Z,16.68
2022-10-28T22:54:18.779Z,16.74
2022-10-28T22:57:21.654Z,16.61
2022-10-28T23:00:24.543Z,16.55
2022-10-28T23:03:27.438Z,16.47
2022-10-28T23:06:31.700Z,16.42
2022-10-28T23:09:34.605Z,16.43
2022-10-28T23:12:37.499Z,16.30
2022-10-28T23:15:40.557Z,16.36
2022-10-28T23:18:44.691Z,16.37
2022-10-28T23:21:48.919Z,16.39
2022-10-28T23:24:51.831Z,16.46
2022-10-28T23:27:55.003Z,16.51
2022-10-28T23:31:00.979Z,16.68
2022-10-28T23:34:03.871Z,16.73
2022-10-28T23:37:08.122Z,16.62
2022-10-28T23:40:12.229Z,16.57
2022-10-28T23:43:15.077Z,16.74
2022-10-28T23:46:18.411Z,16.82
2022-10-28T23:49:21.375Z,16.73
2022-10-28T23:52:25.655Z,16.71
2022-10-28T23:55:28.514Z,16.70
2022-10-28T23:58:31.448Z,16.69
